sensor_id;sensor_type;location;lat;lon;timestamp;pressure;altitude;pressure_sealevel;temperature;humidity
20424;BME280;10371;49.042;8.002;2023-09-30T00:00:13;100710.69;;;16.40;100.00
20424;BME280;10371;49.042;8.002;2023-09-30T00:01:14;100715.94;;;16.40;100.00
20424;BME280;10371;49.042;8.002;2023-09-30T00:02:14;100709.72;;;16.41;100.00
20424;BME280;10371;49.042;8.002;2023-09-30T00:03:15;100715.66;;;16.43;100.00
20424;BME280;10371;49.042;8.002;2023-09-30T00:04:15;100714.13;;;16.41;100.00
20424;BME280;10371;49.042;8.002;2023-09-30T00:05:15;100706.13;;;16.42;100.00
20424;BME280;10371;49.042;8.002;2023-09-30T00:06:19;100707.09;;;16.41;100.00
20424;BME280;10371;49.042;8.002;2023-09-30T00:07:19;100706.53;;;16.38;100.00
20424;BME280;10371;49.042;8.002;2023-09-30T00:08:19;100709.31;;;16.36;100.00
20424;BME280;10371;49.042;8.002;2023-09-30T00:09:20;100709.59;;;16.33;100.00
20424;BME280;10371;49.042;8.002;2023-09-30T00:10:20;100715.13;;;16.30;100.00
20424;BME280;10371;49.042;8.002;2023-09-30T00:11:20;100711.81;;;16.28;100.00
20424;BME280;10371;49.042;8.002;2023-09-30T00:12:20;100719.97;;;16.25;100.00
20424;BME280;10371;49.042;8.002;2023-09-30T00:13:21;100712.38;;;16.22;100.00
20424;BME280;10371;49.042;8.002;2023-09-30T00:14:21;100712.38;;;16.22;100.00
20424;BME280;10371;49.042;8.002;2023-09-30T00:15:22;100715.13;;;16.20;100.00
20424;BME280;10371;49.042;8.002;2023-09-30T00:16:22;100715.00;;;16.22;100.00
20424;BME280;10371;49.042;8.002;2023-09-30T00:17:22;100708.06;;;16.21;100.00
20424;BME280;10371;49.042;8.002;2023-09-30T00:18:23;100712.66;;;16.19;100.00
20424;BME280;10371;49.042;8.002;2023-09-30T00:19:23;100708.50;;;16.16;100.00
20424;BME280;10371;49.042;8.002;2023-09-30T00:20:23;100716.22;;;16.18;100.00
20424;BME280;10371;49.042;8.002;2023-09-30T00:21:24;100725.22;;;16.15;100.00
20424;BME280;10371;49.042;8.002;2023-09-30T00:22:25;100732.25;;;16.15;100.00
20424;BME280;10371;49.042;8.002;2023-09-30T00:23:25;100724.53;;;16.13;100.00
20424;BME280;10371;49.042;8.002;2023-09-30T00:24:25;100724.78;;;16.10;100.00
20424;BME280;10371;49.042;8.002;2023-09-30T00:25:26;100729.91;;;16.12;100.00
20424;BME280;10371;49.042;8.002;2023-09-30T00:26:27;100729.09;;;16.11;100.00
20424;BME280;10371;49.042;8.002;2023-09-30T00:27:28;100736.16;;;16.11;100.00
20424;BME280;10371;49.042;8.002;2023-09-30T00:28:28;100739.44;;;16.13;100.00
20424;BME280;10371;49.042;8.002;2023-09-30T00:29:28;100733.38;;;16.12;100.00
20424;BME280;10371;49.042;8.002;2023-09-30T00:30:28;100730.91;;;16.11;100.00
20424;BME280;10371;49.042;8.002;2023-09-30T00:31:29;100733.78;;;16.07;100.00
20424;BME280;10371;49.042;8.002;2023-09-30T00:32:29;100732.53;;;15.92;100.00
20424;BME280;10371;49.042;8.002;2023-09-30T00:33:29;100735.69;;;15.86;100.00
20424;BME280;10371;49.042;8.002;2023-09-30T00:34:36;100734.28;;;15.82;100.00
20424;BME280;10371;49.042;8.002;2023-09-30T00:35:36;100735.66;;;15.76;100.00
20424;BME280;10371;49.042;8.002;2023-09-30T00:36:37;100726.41;;;15.72;100.00
20424;BME280;10371;49.042;8.002;2023-09-30T00:37:38;100726.41;;;15.72;100.00
20424;BME280;10371;49.042;8.002;2023-09-30T00:38:39;100724.75;;;15.71;100.00
20424;BME280;10371;49.042;8.002;2023-09-30T00:39:40;100731.38;;;15.75;100.00
20424;BME280;10371;49.042;8.002;2023-09-30T00:40:49;100732.47;;;15.73;100.00
20424;BME280;10371;49.042;8.002;2023-09-30T00:41:50;100732.22;;;15.76;100.00
20424;BME280;10371;49.042;8.002;2023-09-30T00:42:50;100732.75;;;15.79;100.00
20424;BME280;10371;49.042;8.002;2023-09-30T00:43:50;100725.47;;;15.83;100.00
20424;BME280;10371;49.042;8.002;2023-09-30T00:44:50;100728.63;;;15.86;100.00
20424;BME280;10371;49.042;8.002;2023-09-30T00:46:01;100718.69;;;15.90;100.00
20424;BME280;10371;49.042;8.002;2023-09-30T00:47:02;100730.59;;;15.94;100.00
20424;BME280;10371;49.042;8.002;2023-09-30T00:48:02;100725.88;;;15.98;100.00
20424;BME280;10371;49.042;8.002;2023-09-30T00:49:03;100724.78;;;16.00;100.00
20424;BME280;10371;49.042;8.002;2023-09-30T00:50:04;100732.28;;;16.05;100.00
20424;BME280;10371;49.042;8.002;2023-09-30T00:51:07;100733.78;;;16.07;100.00
20424;BME280;10371;49.042;8.002;2023-09-30T00:52:07;100726.59;;;16.09;100.00
20424;BME280;10371;49.042;8.002;2023-09-30T00:53:08;100736.16;;;16.11;100.00
20424;BME280;10371;49.042;8.002;2023-09-30T00:54:08;100736.97;;;16.11;100.00
20424;BME280;10371;49.042;8.002;2023-09-30T00:55:09;100747.91;;;16.16;100.00
20424;BME280;10371;49.042;8.002;2023-09-30T00:56:10;100744.16;;;16.19;100.00
20424;BME280;10371;49.042;8.002;2023-09-30T00:57:12;100750.91;;;16.21;100.00
20424;BME280;10371;49.042;8.002;2023-09-30T00:58:13;100753.44;;;16.23;100.00
20424;BME280;10371;49.042;8.002;2023-09-30T00:59:13;100748.06;;;16.24;100.00
20424;BME280;10371;49.042;8.002;2023-09-30T01:00:15;100747.91;;;16.26;100.00
20424;BME280;10371;49.042;8.002;2023-09-30T01:01:16;100751.22;;;16.28;100.00
20424;BME280;10371;49.042;8.002;2023-09-30T01:02:18;100752.88;;;16.29;100.00
20424;BME280;10371;49.042;8.002;2023-09-30T01:03:18;100756.75;;;16.35;100.00
20424;BME280;10371;49.042;8.002;2023-09-30T01:04:19;100751.22;;;16.38;100.00
20424;BME280;10371;49.042;8.002;2023-09-30T01:05:20;100753.56;;;16.41;100.00
20424;BME280;10371;49.042;8.002;2023-09-30T01:06:20;100746.38;;;16.43;100.00
20424;BME280;10371;49.042;8.002;2023-09-30T01:07:21;100754.13;;;16.44;100.00
20424;BME280;10371;49.042;8.002;2023-09-30T01:08:22;100759.09;;;16.47;100.00
20424;BME280;10371;49.042;8.002;2023-09-30T01:09:22;100749.28;;;16.49;100.00
20424;BME280;10371;49.042;8.002;2023-09-30T01:10:23;100751.75;;;16.51;100.00
20424;BME280;10371;49.042;8.002;2023-09-30T01:11:24;100752.47;;;16.53;100.00
20424;BME280;10371;49.042;8.002;2023-09-30T01:12:24;100745.41;;;16.53;100.00
20424;BME280;10371;49.042;8.002;2023-09-30T01:13:32;100743.59;;;16.54;100.00
20424;BME280;10371;49.042;8.002;2023-09-30T01:14:33;100750.66;;;16.53;100.00
20424;BME280;10371;49.042;8.002;2023-09-30T01:15:35;100741.66;;;16.56;100.00
20424;BME280;10371;49.042;8.002;2023-09-30T01:16:36;100748.44;;;16.59;100.00
20424;BME280;10371;49.042;8.002;2023-09-30T01:17:37;100746.63;;;16.59;100.00
20424;BME280;10371;49.042;8.002;2023-09-30T01:18:38;100748.28;;;16.60;100.00
20424;BME280;10371;49.042;8.002;2023-09-30T01:19:40;100745.53;;;16.62;100.00
20424;BME280;10371;49.042;8.002;2023-09-30T01:20:40;100742.78;;;16.63;100.00
20424;BME280;10371;49.042;8.002;2023-09-30T01:21:41;100740.16;;;16.63;100.00
20424;BME280;10371;49.042;8.002;2023-09-30T01:22:41;100736.66;;;16.63;100.00
20424;BME280;10371;49.042;8.002;2023-09-30T01:23:45;100737.78;;;16.70;100.00
20424;BME280;10371;49.042;8.002;2023-09-30T01:24:46;100736.13;;;16.69;100.00
20424;BME280;10371;49.042;8.002;2023-09-30T01:25:47;100734.44;;;16.68;100.00
20424;BME280;10371;49.042;8.002;2023-09-30T01:26:49;100734.59;;;16.66;100.00
20424;BME280;10371;49.042;8.002;2023-09-30T01:27:50;100736.38;;;16.66;100.00
20424;BME280;10371;49.042;8.002;2023-09-30T01:28:54;100728.78;;;16.63;100.00
20424;BME280;10371;49.042;8.002;2023-09-30T01:29:54;100724.38;;;16.63;100.00
20424;BME280;10371;49.042;8.002;2023-09-30T01:30:55;100740.28;;;16.62;100.00
20424;BME280;10371;49.042;8.002;2023-09-30T01:31:55;100738.34;;;16.54;100.00
20424;BME280;10371;49.042;8.002;2023-09-30T01:32:55;100739.03;;;16.46;100.00
20424;BME280;10371;49.042;8.002;2023-09-30T01:33:56;100752.88;;;16.48;100.00
20424;BME280;10371;49.042;8.002;2023-09-30T01:34:56;100745.97;;;16.47;100.00
20424;BME280;10371;49.042;8.002;2023-09-30T01:35:56;100742.63;;;16.45;100.00
20424;BME280;10371;49.042;8.002;2023-09-30T01:36:57;100743.34;;;16.47;100.00
20424;BME280;10371;49.042;8.002;2023-09-30T01:37:57;100746.25;;;16.44;100.00
20424;BME280;10371;49.042;8.002;2023-09-30T01:38:57;100750.53;;;16.45;100.00
20424;BME280;10371;49.042;8.002;2023-09-30T01:40:01;100753.84;;;16.47;100.00
20424;BME280;10371;49.042;8.002;2023-09-30T01:41:03;100752.16;;;16.46;100.00
20424;BME280;10371;49.042;8.002;2023-09-30T01:42:04;100751.50;;;16.44;100.00
20424;BME280;10371;49.042;8.002;2023-09-30T01:43:04;100748.31;;;16.41;100.00
20424;BME280;10371;49.042;8.002;2023-09-30T01:44:05;100753.31;;;16.44;100.00
20424;BME280;10371;49.042;8.002;2023-09-30T01:45:06;100754.13;;;16.44;100.00
20424;BME280;10371;49.042;8.002;2023-09-30T01:46:06;100748.88;;;16.44;100.00
20424;BME280;10371;49.042;8.002;2023-09-30T01:47:06;100750.81;;;16.42;100.00
20424;BME280;10371;49.042;8.002;2023-09-30T01:48:07;100755.25;;;16.42;100.00
20424;BME280;10371;49.042;8.002;2023-09-30T01:49:10;100752.72;;;16.40;100.00
20424;BME280;10371;49.042;8.002;2023-09-30T01:50:11;100756.34;;;16.39;100.00
20424;BME280;10371;49.042;8.002;2023-09-30T01:51:11;100758.00;;;16.40;100.00
20424;BME280;10371;49.042;8.002;2023-09-30T01:52:11;100759.66;;;16.41;100.00
20424;BME280;10371;49.042;8.002;2023-09-30T01:53:12;100750.81;;;16.42;100.00
20424;BME280;10371;49.042;8.002;2023-09-30T01:54:12;100755.25;;;16.42;100.00
20424;BME280;10371;49.042;8.002;2023-09-30T01:55:12;100758.69;;;16.42;100.00
20424;BME280;10371;49.042;8.002;2023-09-30T01:56:13;100757.72;;;16.43;100.00
20424;BME280;10371;49.042;8.002;2023-09-30T01:57:13;100764.66;;;16.44;100.00
20424;BME280;10371;49.042;8.002;2023-09-30T01:58:13;100752.31;;;16.45;100.00
20424;BME280;10371;49.042;8.002;2023-09-30T01:59:14;100758.41;;;16.45;100.00
20424;BME280;10371;49.042;8.002;2023-09-30T02:00:14;100759.38;;;16.44;100.00
20424;BME280;10371;49.042;8.002;2023-09-30T02:01:15;100760.50;;;16.42;100.00
20424;BME280;10371;49.042;8.002;2023-09-30T02:02:15;100758.13;;;16.29;100.00
20424;BME280;10371;49.042;8.002;2023-09-30T02:03:16;100748.72;;;16.26;100.00
20424;BME280;10371;49.042;8.002;2023-09-30T02:04:17;100747.78;;;16.27;100.00
20424;BME280;10371;49.042;8.002;2023-09-30T02:05:17;100748.88;;;16.25;100.00
20424;BME280;10371;49.042;8.002;2023-09-30T02:06:18;100744.72;;;16.22;100.00
20424;BME280;10371;49.042;8.002;2023-09-30T02:07:19;100746.09;;;16.26;100.00
20424;BME280;10371;49.042;8.002;2023-09-30T02:08:19;100761.72;;;16.28;100.00
20424;BME280;10371;49.042;8.002;2023-09-30T02:09:19;100755.50;;;16.29;100.00
20424;BME280;10371;49.042;8.002;2023-09-30T02:10:20;100749.41;;;16.28;100.00
20424;BME280;10371;49.042;8.002;2023-09-30T02:11:20;100745.97;;;16.28;100.00
20424;BME280;10371;49.042;8.002;2023-09-30T02:12:20;100748.88;;;16.25;100.00
20424;BME280;10371;49.042;8.002;2023-09-30T02:13:20;100753.84;;;16.28;100.00
20424;BME280;10371;49.042;8.002;2023-09-30T02:14:21;100738.38;;;16.25;100.00
20424;BME280;10371;49.042;8.002;2023-09-30T02:15:21;100748.72;;;16.26;100.00
20424;BME280;10371;49.042;8.002;2023-09-30T02:16:21;100751.22;;;16.28;100.00
20424;BME280;10371;49.042;8.002;2023-09-30T02:17:23;100749.41;;;16.28;100.00
20424;BME280;10371;49.042;8.002;2023-09-30T02:18:23;100759.81;;;16.30;100.00
20424;BME280;10371;49.042;8.002;2023-09-30T02:19:23;100758.81;;;16.31;100.00
20424;BME280;10371;49.042;8.002;2023-09-30T02:20:24;100763.97;;;16.33;100.00
20424;BME280;10371;49.042;8.002;2023-09-30T02:21:26;100763.97;;;16.33;100.00
20424;BME280;10371;49.042;8.002;2023-09-30T02:22:27;100762.97;;;16.34;100.00
20424;BME280;10371;49.042;8.002;2023-09-30T02:23:28;100763.69;;;16.36;100.00
20424;BME280;10371;49.042;8.002;2023-09-30T02:24:28;100764.34;;;16.38;100.00
20424;BME280;10371;49.042;8.002;2023-09-30T02:25:28;100767.84;;;16.38;100.00
20424;BME280;10371;49.042;8.002;2023-09-30T02:26:30;100758.97;;;16.39;100.00
20424;BME280;10371;49.042;8.002;2023-09-30T02:27:30;100765.88;;;16.40;100.00
20424;BME280;10371;49.042;8.002;2023-09-30T02:28:31;100756.06;;;16.42;100.00
20424;BME280;10371;49.042;8.002;2023-09-30T02:29:32;100756.88;;;16.43;100.00
20424;BME280;10371;49.042;8.002;2023-09-30T02:30:32;100762.13;;;16.43;100.00
20424;BME280;10371;49.042;8.002;2023-09-30T02:31:33;100750.09;;;16.40;100.00
20424;BME280;10371;49.042;8.002;2023-09-30T02:32:33;100762.28;;;16.41;100.00
20424;BME280;10371;49.042;8.002;2023-09-30T02:33:34;100757.56;;;16.35;100.00
20424;BME280;10371;49.042;8.002;2023-09-30T02:34:37;100760.75;;;16.29;100.00
20424;BME280;10371;49.042;8.002;2023-09-30T02:35:38;100766.03;;;16.19;100.00
20424;BME280;10371;49.042;8.002;2023-09-30T02:36:43;100762.13;;;16.14;100.00
20424;BME280;10371;49.042;8.002;2023-09-30T02:37:44;100760.06;;;16.07;100.00
20424;BME280;10371;49.042;8.002;2023-09-30T02:38:44;100764.31;;;15.99;100.00
20424;BME280;10371;49.042;8.002;2023-09-30T02:39:46;100762.50;;;15.90;100.00
20424;BME280;10371;49.042;8.002;2023-09-30T02:40:47;100761.41;;;15.82;100.00
20424;BME280;10371;49.042;8.002;2023-09-30T02:41:48;100762.63;;;15.78;100.00
20424;BME280;10371;49.042;8.002;2023-09-30T02:42:50;100759.44;;;15.75;100.00
20424;BME280;10371;49.042;8.002;2023-09-30T02:43:51;100765.78;;;15.72;100.00
20424;BME280;10371;49.042;8.002;2023-09-30T02:44:51;100763.53;;;15.68;100.00
20424;BME280;10371;49.042;8.002;2023-09-30T02:45:52;100764.50;;;15.67;100.00
20424;BME280;10371;49.042;8.002;2023-09-30T02:46:53;100762.13;;;15.63;100.00
20424;BME280;10371;49.042;8.002;2023-09-30T02:47:53;100758.94;;;15.60;100.00
20424;BME280;10371;49.042;8.002;2023-09-30T02:48:53;100757.00;;;15.52;100.00
20424;BME280;10371;49.042;8.002;2023-09-30T02:49:56;100756.16;;;15.52;100.00
20424;BME280;10371;49.042;8.002;2023-09-30T02:50:57;100768.88;;;15.56;100.00
20424;BME280;10371;49.042;8.002;2023-09-30T02:51:57;100773.03;;;15.59;100.00
20424;BME280;10371;49.042;8.002;2023-09-30T02:52:57;100779.69;;;15.63;100.00
20424;BME280;10371;49.042;8.002;2023-09-30T02:53:58;100773.31;;;15.65;100.00
20424;BME280;10371;49.042;8.002;2023-09-30T02:54:58;100775.72;;;15.69;100.00
20424;BME280;10371;49.042;8.002;2023-09-30T02:55:58;100776.41;;;15.71;100.00
20424;BME280;10371;49.042;8.002;2023-09-30T02:57:00;100775.31;;;15.73;100.00
20424;BME280;10371;49.042;8.002;2023-09-30T02:58:04;100776.84;;;15.76;100.00
20424;BME280;10371;49.042;8.002;2023-09-30T02:59:04;100780.03;;;15.79;100.00
20424;BME280;10371;49.042;8.002;2023-09-30T03:00:05;100778.09;;;15.81;100.00
20424;BME280;10371;49.042;8.002;2023-09-30T03:01:15;100779.63;;;15.84;100.00
20424;BME280;10371;49.042;8.002;2023-09-30T03:02:18;100788.91;;;15.88;100.00
20424;BME280;10371;49.042;8.002;2023-09-30T03:03:18;100779.91;;;15.91;100.00
20424;BME280;10371;49.042;8.002;2023-09-30T03:04:18;100777.03;;;15.94;100.00
20424;BME280;10371;49.042;8.002;2023-09-30T03:05:20;100771.63;;;15.95;100.00
20424;BME280;10371;49.042;8.002;2023-09-30T03:06:20;100769.44;;;16.00;100.00
20424;BME280;10371;49.042;8.002;2023-09-30T03:07:21;100774.81;;;15.99;100.00
20424;BME280;10371;49.042;8.002;2023-09-30T03:08:21;100765.00;;;16.01;100.00
20424;BME280;10371;49.042;8.002;2023-09-30T03:09:22;100769.88;;;16.05;100.00
20424;BME280;10371;49.042;8.002;2023-09-30T03:10:22;100770.81;;;16.04;100.00
20424;BME280;10371;49.042;8.002;2023-09-30T03:11:26;100771.53;;;16.06;100.00
20424;BME280;10371;49.042;8.002;2023-09-30T03:12:27;100769.59;;;16.08;100.00
20424;BME280;10371;49.042;8.002;2023-09-30T03:13:27;100768.78;;;16.08;100.00
20424;BME280;10371;49.042;8.002;2023-09-30T03:14:28;100772.06;;;16.10;100.00
20424;BME280;10371;49.042;8.002;2023-09-30T03:15:30;100765.16;;;16.09;100.00
20424;BME280;10371;49.042;8.002;2023-09-30T03:16:31;100759.09;;;16.08;100.00
20424;BME280;10371;49.042;8.002;2023-09-30T03:17:32;100760.19;;;16.06;100.00
20424;BME280;10371;49.042;8.002;2023-09-30T03:18:32;100753.28;;;16.05;100.00
20424;BME280;10371;49.042;8.002;2023-09-30T03:19:32;100751.75;;;16.02;100.00
20424;BME280;10371;49.042;8.002;2023-09-30T03:20:33;100756.31;;;16.00;100.00
20424;BME280;10371;49.042;8.002;2023-09-30T03:21:36;100752.97;;;15.98;100.00
20424;BME280;10371;49.042;8.002;2023-09-30T03:22:38;100755.59;;;15.98;100.00
20424;BME280;10371;49.042;8.002;2023-09-30T03:23:38;100752.16;;;15.98;100.00
20424;BME280;10371;49.042;8.002;2023-09-30T03:24:40;100754.06;;;15.96;100.00
20424;BME280;10371;49.042;8.002;2023-09-30T03:25:41;100753.97;;;15.97;100.00
20424;BME280;10371;49.042;8.002;2023-09-30T03:26:42;100755.88;;;15.95;100.00
20424;BME280;10371;49.042;8.002;2023-09-30T03:27:47;100750.06;;;15.92;100.00
20424;BME280;10371;49.042;8.002;2023-09-30T03:28:47;100753.81;;;15.89;100.00
20424;BME280;10371;49.042;8.002;2023-09-30T03:29:48;100756.00;;;15.84;100.00
20424;BME280;10371;49.042;8.002;2023-09-30T03:30:49;100756.38;;;15.70;100.00
20424;BME280;10371;49.042;8.002;2023-09-30T03:31:50;100763.22;;;15.61;100.00
20424;BME280;10371;49.042;8.002;2023-09-30T03:32:50;100763.19;;;15.51;100.00
20424;BME280;10371;49.042;8.002;2023-09-30T03:33:51;100765.63;;;15.43;100.00
20424;BME280;10371;49.042;8.002;2023-09-30T03:34:54;100764.53;;;15.36;100.00
20424;BME280;10371;49.042;8.002;2023-09-30T03:35:54;100771.50;;;15.26;100.00
20424;BME280;10371;49.042;8.002;2023-09-30T03:36:55;100774.66;;;15.19;100.00
20424;BME280;10371;49.042;8.002;2023-09-30T03:37:56;100772.03;;;15.19;100.00
20424;BME280;10371;49.042;8.002;2023-09-30T03:38:58;100775.47;;;15.20;100.00
20424;BME280;10371;49.042;8.002;2023-09-30T03:40:05;100772.75;;;15.22;100.00
20424;BME280;10371;49.042;8.002;2023-09-30T03:41:14;100764.59;;;15.25;100.00
20424;BME280;10371;49.042;8.002;2023-09-30T03:42:14;100766.25;;;15.26;100.00
20424;BME280;10371;49.042;8.002;2023-09-30T03:43:14;100764.47;;;15.26;100.00
20424;BME280;10371;49.042;8.002;2023-09-30T03:44:15;100775.66;;;15.28;100.00
20424;BME280;10371;49.042;8.002;2023-09-30T03:45:15;100776.47;;;15.29;100.00
20424;BME280;10371;49.042;8.002;2023-09-30T03:46:16;100773.31;;;15.25;100.00
20424;BME280;10371;49.042;8.002;2023-09-30T03:47:18;100775.81;;;15.27;100.00
20424;BME280;10371;49.042;8.002;2023-09-30T03:48:18;100765.53;;;15.24;100.00
20424;BME280;10371;49.042;8.002;2023-09-30T03:49:19;100765.53;;;15.24;100.00
20424;BME280;10371;49.042;8.002;2023-09-30T03:50:22;100768.16;;;15.24;100.00
20424;BME280;10371;49.042;8.002;2023-09-30T03:51:24;100773.41;;;15.24;100.00
20424;BME280;10371;49.042;8.002;2023-09-30T03:52:25;100771.78;;;15.23;100.00
20424;BME280;10371;49.042;8.002;2023-09-30T03:53:26;100774.38;;;15.23;100.00
20424;BME280;10371;49.042;8.002;2023-09-30T03:54:27;100784.06;;;15.22;100.00
20424;BME280;10371;49.042;8.002;2023-09-30T03:55:27;100780.59;;;15.22;100.00
20424;BME280;10371;49.042;8.002;2023-09-30T03:56:29;100781.56;;;15.20;100.00
20424;BME280;10371;49.042;8.002;2023-09-30T03:57:31;100772.16;;;15.18;100.00
20424;BME280;10371;49.042;8.002;2023-09-30T03:58:32;100783.22;;;15.22;100.00
20424;BME280;10371;49.042;8.002;2023-09-30T03:59:32;100777.97;;;15.22;100.00
20424;BME280;10371;49.042;8.002;2023-09-30T04:00:33;100773.00;;;15.18;100.00
20424;BME280;10371;49.042;8.002;2023-09-30T04:01:33;100784.16;;;15.20;100.00
20424;BME280;10371;49.042;8.002;2023-09-30T04:02:33;100775.22;;;15.23;100.00
20424;BME280;10371;49.042;8.002;2023-09-30T04:03:34;100772.59;;;15.23;100.00
20424;BME280;10371;49.042;8.002;2023-09-30T04:04:34;100777.47;;;15.28;100.00
20424;BME280;10371;49.042;8.002;2023-09-30T04:05:37;100781.72;;;15.29;100.00
20424;BME280;10371;49.042;8.002;2023-09-30T04:06:37;100790.44;;;15.29;100.00
20424;BME280;10371;49.042;8.002;2023-09-30T04:07:38;100791.94;;;15.22;100.00
20424;BME280;10371;49.042;8.002;2023-09-30T04:08:39;100785.66;;;15.13;100.00
20424;BME280;10371;49.042;8.002;2023-09-30T04:09:39;100788.66;;;15.09;100.00
20424;BME280;10371;49.042;8.002;2023-09-30T04:10:39;100789.38;;;15.11;100.00
20424;BME280;10371;49.042;8.002;2023-09-30T04:11:40;100780.53;;;15.12;100.00
20424;BME280;10371;49.042;8.002;2023-09-30T04:12:42;100786.63;;;15.12;100.00
20424;BME280;10371;49.042;8.002;2023-09-30T04:13:42;100790.09;;;15.13;100.00
20424;BME280;10371;49.042;8.002;2023-09-30T04:14:43;100798.78;;;15.13;100.00
20424;BME280;10371;49.042;8.002;2023-09-30T04:15:44;100795.44;;;15.11;100.00
20424;BME280;10371;49.042;8.002;2023-09-30T04:16:44;100795.34;;;15.13;100.00
20424;BME280;10371;49.042;8.002;2023-09-30T04:17:45;100790.66;;;15.16;100.00
20424;BME280;10371;49.042;8.002;2023-09-30T04:18:45;100792.44;;;15.16;100.00
20424;BME280;10371;49.042;8.002;2023-09-30T04:19:46;100794.94;;;15.17;100.00
20424;BME280;10371;49.042;8.002;2023-09-30T04:20:46;100790.41;;;15.19;100.00
20424;BME280;10371;49.042;8.002;2023-09-30T04:21:46;100792.03;;;15.20;100.00
20424;BME280;10371;49.042;8.002;2023-09-30T04:22:48;100781.28;;;15.24;100.00
20424;BME280;10371;49.042;8.002;2023-09-30T04:23:48;100783.53;;;15.28;100.00
20424;BME280;10371;49.042;8.002;2023-09-30T04:24:49;100785.06;;;15.31;100.00
20424;BME280;10371;49.042;8.002;2023-09-30T04:25:50;100782.06;;;15.35;100.00
20424;BME280;10371;49.042;8.002;2023-09-30T04:26:50;100784.53;;;15.37;100.00
20424;BME280;10371;49.042;8.002;2023-09-30T04:27:53;100784.28;;;15.40;100.00
20424;BME280;10371;49.042;8.002;2023-09-30T04:28:53;100792.84;;;15.42;100.00
20424;BME280;10371;49.042;8.002;2023-09-30T04:29:54;100794.38;;;15.45;100.00
20424;BME280;10371;49.042;8.002;2023-09-30T04:30:54;100794.25;;;15.46;100.00
20424;BME280;10371;49.042;8.002;2023-09-30T04:31:58;100792.47;;;15.47;100.00
20424;BME280;10371;49.042;8.002;2023-09-30T04:33:00;100792.31;;;15.48;100.00
20424;BME280;10371;49.042;8.002;2023-09-30T04:34:01;100790.41;;;15.50;100.00
20424;BME280;10371;49.042;8.002;2023-09-30T04:35:03;100784.31;;;15.50;100.00
20424;BME280;10371;49.042;8.002;2023-09-30T04:36:04;100788.59;;;15.51;100.00
20424;BME280;10371;49.042;8.002;2023-09-30T04:37:08;100790.41;;;15.50;100.00
20424;BME280;10371;49.042;8.002;2023-09-30T04:38:09;100787.34;;;15.45;100.00
20424;BME280;10371;49.042;8.002;2023-09-30T04:39:09;100791.88;;;15.43;100.00
20424;BME280;10371;49.042;8.002;2023-09-30T04:40:12;100785.94;;;15.41;100.00
20424;BME280;10371;49.042;8.002;2023-09-30T04:41:15;100789.41;;;15.41;100.00
20424;BME280;10371;49.042;8.002;2023-09-30T04:42:16;100798.09;;;15.42;100.00
20424;BME280;10371;49.042;8.002;2023-09-30T04:43:17;100792.28;;;15.38;100.00
20424;BME280;10371;49.042;8.002;2023-09-30T04:44:18;100804.59;;;15.38;100.00
20424;BME280;10371;49.042;8.002;2023-09-30T04:45:18;100805.53;;;15.37;100.00
20424;BME280;10371;49.042;8.002;2023-09-30T04:46:21;100808.16;;;15.37;100.00
20424;BME280;10371;49.042;8.002;2023-09-30T04:47:23;100806.50;;;15.36;100.00
20424;BME280;10371;49.042;8.002;2023-09-30T04:48:24;100804.97;;;15.33;100.00
20424;BME280;10371;49.042;8.002;2023-09-30T04:49:24;100814.63;;;15.33;100.00
20424;BME280;10371;49.042;8.002;2023-09-30T04:50:24;100809.66;;;15.30;100.00
20424;BME280;10371;49.042;8.002;2023-09-30T04:51:25;100803.69;;;15.28;100.00
20424;BME280;10371;49.042;8.002;2023-09-30T04:52:26;100813.63;;;15.24;100.00
20424;BME280;10371;49.042;8.002;2023-09-30T04:53:27;100804.22;;;15.22;100.00
20424;BME280;10371;49.042;8.002;2023-09-30T04:54:28;100802.78;;;15.17;100.00
20424;BME280;10371;49.042;8.002;2023-09-30T04:55:29;100802.09;;;15.15;100.00
20424;BME280;10371;49.042;8.002;2023-09-30T04:56:29;100799.72;;;15.12;100.00
20424;BME280;10371;49.042;8.002;2023-09-30T04:57:30;100787.13;;;15.06;100.00
20424;BME280;10371;49.042;8.002;2023-09-30T04:58:31;100794.19;;;15.06;100.00
20424;BME280;10371;49.042;8.002;2023-09-30T04:59:32;100794.56;;;15.01;100.00
20424;BME280;10371;49.042;8.002;2023-09-30T05:00:32;100792.34;;;14.96;100.00
20424;BME280;10371;49.042;8.002;2023-09-30T05:01:33;100791.72;;;14.93;100.00
20424;BME280;10371;49.042;8.002;2023-09-30T05:02:34;100803.19;;;14.92;100.00
20424;BME280;10371;49.042;8.002;2023-09-30T05:03:35;100804.16;;;14.91;100.00
20424;BME280;10371;49.042;8.002;2023-09-30T05:04:35;100808.00;;;14.87;100.00
20424;BME280;10371;49.042;8.002;2023-09-30T05:05:36;100813.38;;;14.85;100.00
20424;BME280;10371;49.042;8.002;2023-09-30T05:06:37;100818.28;;;14.79;100.00
20424;BME280;10371;49.042;8.002;2023-09-30T05:07:37;100818.31;;;14.67;100.00
20424;BME280;10371;49.042;8.002;2023-09-30T05:08:37;100816.09;;;14.63;100.00
20424;BME280;10371;49.042;8.002;2023-09-30T05:09:38;100800.75;;;14.58;100.00
20424;BME280;10371;49.042;8.002;2023-09-30T05:10:38;100797.41;;;14.56;100.00
20424;BME280;10371;49.042;8.002;2023-09-30T05:11:38;100800.16;;;14.55;100.00
20424;BME280;10371;49.042;8.002;2023-09-30T05:12:39;100801.09;;;14.53;100.00
20424;BME280;10371;49.042;8.002;2023-09-30T05:13:45;100802.06;;;14.52;100.00
20424;BME280;10371;49.042;8.002;2023-09-30T05:14:45;100810.00;;;14.51;100.00